Time;durP1;ratioP1;P1;durP2;ratioP2;P2;SDS_P1;SDS_P2;PMS_P1;PMS_P2;Temp;Humidity;BMP_temperature;BMP_pressure;BME280_temperature;BME280_humidity;BME280_pressure;Samples;Min_cycle;Max_cycle;Signal;HPM_P1;HPM_P2
2022/06/07 00:02:01;;;;;;;21.65;7.45;;;;;;;;;;5006288;28;20049;-60
2022/06/07 00:04:27;;;;;;;20.83;7.32;;;;;;;;;;5023852;28;20037;-60
2022/06/07 00:06:53;;;;;;;14.13;7.43;;;;;;;;;;5023396;28;20103;-60
2022/06/07 00:09:19;;;;;;;17.92;8.15;;;;;;;;;;5022332;28;20111;-61
2022/06/07 00:11:46;;;;;;;15.15;8.32;;;;;;;;;;5024161;28;20076;-60
2022/06/07 00:14:12;;;;;;;17.15;7.20;;;;;;;;;;5024051;28;20045;-61
2022/06/07 00:16:38;;;;;;;17.63;7.82;;;;;;;;;;5019476;28;20124;-60
2022/06/07 00:19:04;;;;;;;17.35;8.85;;;;;;;;;;5023842;28;20041;-61
2022/06/07 00:21:30;;;;;;;17.75;8.27;;;;;;;;;;5023522;28;20438;-61
2022/06/07 00:23:57;;;;;;;16.58;8.05;;;;;;;;;;5022837;28;20030;-60
2022/06/07 00:26:23;;;;;;;18.30;8.95;;;;;;;;;;5023437;28;20053;-61
2022/06/07 00:28:49;;;;;;;16.73;9.60;;;;;;;;;;5022979;28;20041;-61
2022/06/07 00:31:15;;;;;;;23.15;8.80;;;;;;;;;;5005810;28;20104;-61
2022/06/07 00:33:42;;;;;;;16.17;8.50;;;;;;;;;;5019948;28;20049;-61
2022/06/07 00:36:08;;;;;;;19.23;9.68;;;;;;;;;;5022007;28;20042;-61
2022/06/07 00:38:35;;;;;;;21.60;9.57;;;;;;;;;;5022141;28;20053;-60
2022/06/07 00:41:03;;;;;;;18.23;10.07;;;;;;;;;;5023453;28;20049;-61
2022/06/07 00:43:29;;;;;;;20.05;11.50;;;;;;;;;;5022925;28;20059;-60
2022/06/07 00:45:57;;;;;;;21.35;9.50;;;;;;;;;;5023393;28;20064;-61
2022/06/07 00:48:23;;;;;;;22.35;11.27;;;;;;;;;;5022586;28;20042;-60
2022/06/07 00:50:59;;;;;;;26.88;10.52;;;;;;;;;;5023539;28;20044;-61
2022/06/07 00:53:28;;;;;;;26.30;10.45;;;;;;;;;;5022419;28;20045;-61
2022/06/07 00:55:55;;;;;;;20.20;9.95;;;;;;;;;;5023189;28;20057;-60
2022/06/07 00:58:22;;;;;;;21.13;10.32;;;;;;;;;;5023077;28;20079;-61
2022/06/07 01:00:49;;;;;;;24.35;10.45;;;;;;;;;;5023225;28;20072;-61
2022/06/07 01:03:15;;;;;;;20.27;10.10;;;;;;;;;;5023523;28;20044;-61
2022/06/07 01:05:42;;;;;;;17.70;9.75;;;;;;;;;;5023055;28;20041;-60
2022/06/07 01:10:55;;;;;;;16.70;9.55;;;;;;;;;;5025605;28;20045;-61
2022/06/07 01:13:22;;;;;;;20.98;9.88;;;;;;;;;;5027117;28;20107;-61
2022/06/07 01:15:49;;;;;;;19.02;10.25;;;;;;;;;;5026881;28;20140;-61
2022/06/07 01:18:16;;;;;;;23.35;10.77;;;;;;;;;;5009794;28;20046;-60
2022/06/07 01:20:43;;;;;;;24.83;10.20;;;;;;;;;;5027216;28;21895;-61
2022/06/07 01:23:09;;;;;;;17.98;10.68;;;;;;;;;;5026607;28;20041;-61
2022/06/07 01:25:35;;;;;;;20.08;10.48;;;;;;;;;;5026879;28;20089;-61
2022/06/07 01:28:01;;;;;;;17.10;10.93;;;;;;;;;;5026808;28;20432;-60
2022/06/07 01:30:28;;;;;;;20.25;10.75;;;;;;;;;;5026389;28;20042;-60
2022/06/07 01:32:54;;;;;;;18.52;10.50;;;;;;;;;;5026714;28;20107;-61
2022/06/07 01:35:20;;;;;;;16.40;9.00;;;;;;;;;;5026066;28;20598;-61
2022/06/07 01:37:46;;;;;;;18.95;9.90;;;;;;;;;;5026532;28;20057;-61
2022/06/07 01:42:57;;;;;;;20.50;9.48;;;;;;;;;;5026922;28;20045;-61
2022/06/07 01:45:24;;;;;;;15.05;9.57;;;;;;;;;;5026170;28;20527;-61
2022/06/07 01:47:50;;;;;;;16.55;9.85;;;;;;;;;;5026355;28;20064;-61
2022/06/07 01:50:17;;;;;;;15.40;9.23;;;;;;;;;;5026619;28;20069;-60
2022/06/07 01:52:43;;;;;;;15.48;9.65;;;;;;;;;;5026597;28;20088;-60
2022/06/07 01:55:09;;;;;;;18.80;10.27;;;;;;;;;;5026402;28;20047;-61
2022/06/07 01:57:36;;;;;;;19.10;9.32;;;;;;;;;;5026127;28;20087;-61
2022/06/07 02:00:04;;;;;;;18.83;9.38;;;;;;;;;;5026675;28;20479;-60
2022/06/07 02:02:30;;;;;;;17.08;9.15;;;;;;;;;;5026118;28;20136;-61
2022/06/07 02:04:57;;;;;;;15.45;8.48;;;;;;;;;;5025958;28;20042;-60
2022/06/07 02:07:23;;;;;;;15.88;10.48;;;;;;;;;;5025225;28;20447;-61
2022/06/07 02:09:49;;;;;;;17.60;9.35;;;;;;;;;;5025891;28;20049;-61
2022/06/07 02:12:15;;;;;;;20.23;10.38;;;;;;;;;;5026204;28;20069;-60
2022/06/07 02:14:41;;;;;;;20.38;9.98;;;;;;;;;;5025789;28;20495;-61
2022/06/07 02:17:08;;;;;;;18.77;10.18;;;;;;;;;;5026225;28;20129;-60
2022/06/07 02:19:35;;;;;;;15.68;9.18;;;;;;;;;;5025690;28;20053;-61
2022/06/07 02:22:01;;;;;;;18.65;9.57;;;;;;;;;;5024991;28;20088;-61
2022/06/07 02:24:28;;;;;;;15.73;9.18;;;;;;;;;;5025123;28;20479;-61
2022/06/07 02:26:57;;;;;;;16.48;9.38;;;;;;;;;;5025876;28;20707;-60
2022/06/07 02:29:25;;;;;;;19.27;9.25;;;;;;;;;;5025033;28;20088;-61
2022/06/07 02:31:53;;;;;;;19.20;10.15;;;;;;;;;;5025406;28;20049;-61
2022/06/07 02:34:20;;;;;;;17.73;9.38;;;;;;;;;;5025431;28;20132;-60
2022/06/07 02:36:48;;;;;;;18.73;10.00;;;;;;;;;;5026507;28;20115;-60
2022/06/07 02:39:14;;;;;;;18.88;10.23;;;;;;;;;;5025500;28;20148;-61
2022/06/07 02:41:41;;;;;;;17.50;9.73;;;;;;;;;;5007836;28;20045;-60
2022/06/07 02:44:07;;;;;;;18.27;9.27;;;;;;;;;;5025398;28;20052;-61
2022/06/07 02:46:33;;;;;;;19.95;10.07;;;;;;;;;;5025178;28;20132;-61
2022/06/07 02:48:59;;;;;;;15.90;9.15;;;;;;;;;;5025334;28;20057;-60
2022/06/07 02:51:26;;;;;;;19.23;9.93;;;;;;;;;;5025214;28;20042;-61
2022/06/07 02:53:52;;;;;;;19.42;9.38;;;;;;;;;;5024837;28;20045;-61
2022/06/07 02:56:19;;;;;;;17.63;8.98;;;;;;;;;;5025468;28;20091;-60
2022/06/07 02:58:45;;;;;;;22.35;10.35;;;;;;;;;;5025272;28;20049;-60
2022/06/07 03:01:11;;;;;;;20.90;10.13;;;;;;;;;;5025682;28;20514;-61
2022/06/07 03:03:38;;;;;;;19.75;9.27;;;;;;;;;;5024989;28;20531;-61
2022/06/07 03:06:05;;;;;;;22.15;9.52;;;;;;;;;;5021103;28;20099;-60
2022/06/07 03:08:31;;;;;;;20.08;9.30;;;;;;;;;;5024116;28;20045;-61
2022/06/07 03:10:57;;;;;;;17.60;8.90;;;;;;;;;;5025342;28;20041;-61
2022/06/07 03:13:23;;;;;;;25.13;9.10;;;;;;;;;;5024807;28;20059;-61
2022/06/07 03:15:52;;;;;;;17.15;9.77;;;;;;;;;;5025135;28;20045;-61
2022/06/07 03:18:18;;;;;;;17.55;9.40;;;;;;;;;;4991204;28;20049;-61
2022/06/07 03:20:47;;;;;;;20.27;9.45;;;;;;;;;;5025118;28;20415;-60
2022/06/07 03:23:13;;;;;;;18.77;8.88;;;;;;;;;;5023726;28;20049;-60
2022/06/07 03:25:39;;;;;;;18.42;9.38;;;;;;;;;;5023639;28;20053;-60
2022/06/07 03:28:05;;;;;;;17.67;9.07;;;;;;;;;;5024935;28;20131;-61
2022/06/07 03:30:33;;;;;;;20.25;9.80;;;;;;;;;;5024177;28;20388;-61
2022/06/07 03:32:59;;;;;;;18.52;9.02;;;;;;;;;;5024764;28;20045;-60
2022/06/07 03:35:25;;;;;;;17.85;9.32;;;;;;;;;;5024338;28;20107;-60
2022/06/07 03:37:51;;;;;;;20.15;9.77;;;;;;;;;;5023945;28;20462;-61
2022/06/07 03:40:42;;;;;;;19.65;10.23;;;;;;;;;;5024271;28;20048;-61
2022/06/07 03:43:05;;;;;;;16.70;9.48;;;;;;;;;;5021886;28;20044;-61
2022/06/07 03:45:31;;;;;;;17.17;9.35;;;;;;;;;;5024330;28;20049;-60
2022/06/07 03:47:58;;;;;;;17.88;8.30;;;;;;;;;;5024338;28;20129;-61
2022/06/07 03:50:25;;;;;;;18.25;9.35;;;;;;;;;;5024272;28;20125;-60
2022/06/07 03:52:52;;;;;;;20.85;10.10;;;;;;;;;;5023174;28;20551;-61
2022/06/07 03:55:18;;;;;;;22.98;10.27;;;;;;;;;;5023593;28;20039;-61
2022/06/07 03:57:44;;;;;;;19.10;9.38;;;;;;;;;;5024733;28;20083;-60
2022/06/07 04:00:11;;;;;;;17.92;9.45;;;;;;;;;;5024366;28;20042;-61
2022/06/07 04:02:37;;;;;;;18.23;9.02;;;;;;;;;;5023814;28;20136;-60
2022/06/07 04:05:04;;;;;;;19.80;9.32;;;;;;;;;;5019994;28;20038;-60
2022/06/07 04:10:15;;;;;;;17.83;9.88;;;;;;;;;;5006430;28;20056;-60
2022/06/07 04:12:41;;;;;;;19.73;9.32;;;;;;;;;;5006218;28;20478;-60
2022/06/07 04:15:08;;;;;;;20.33;9.45;;;;;;;;;;5023546;28;20349;-61
2022/06/07 04:17:34;;;;;;;19.20;10.00;;;;;;;;;;5023665;28;20053;-61
2022/06/07 04:20:00;;;;;;;19.80;10.18;;;;;;;;;;5023230;28;20052;-61
2022/06/07 04:22:27;;;;;;;18.48;10.00;;;;;;;;;;5022359;28;20046;-61
2022/06/07 04:24:53;;;;;;;17.30;9.27;;;;;;;;;;5023439;28;20071;-61
2022/06/07 04:27:19;;;;;;;24.45;9.45;;;;;;;;;;5023495;28;20526;-60
2022/06/07 04:29:45;;;;;;;21.70;10.50;;;;;;;;;;5023488;28;20499;-60
2022/06/07 04:32:12;;;;;;;20.77;9.90;;;;;;;;;;5023581;28;20116;-61
2022/06/07 04:34:39;;;;;;;19.58;10.13;;;;;;;;;;5023618;28;20128;-61
2022/06/07 04:37:05;;;;;;;20.40;9.52;;;;;;;;;;5022342;28;20050;-61
2022/06/07 04:39:32;;;;;;;17.35;9.07;;;;;;;;;;5022442;28;20037;-61
2022/06/07 04:41:58;;;;;;;17.95;9.38;;;;;;;;;;5023592;28;20120;-60
2022/06/07 04:44:24;;;;;;;17.65;9.27;;;;;;;;;;5022275;28;20515;-61
2022/06/07 04:46:51;;;;;;;17.33;9.07;;;;;;;;;;5023131;28;20103;-61
2022/06/07 04:49:17;;;;;;;20.67;9.80;;;;;;;;;;5022633;28;20041;-61
2022/06/07 04:51:43;;;;;;;16.70;9.40;;;;;;;;;;5023472;28;20041;-62
2022/06/07 04:54:09;;;;;;;20.33;9.55;;;;;;;;;;5022488;28;20037;-61
2022/06/07 04:56:36;;;;;;;18.23;9.85;;;;;;;;;;5023054;28;20041;-61
2022/06/07 04:59:04;;;;;;;19.02;9.38;;;;;;;;;;5022933;28;20143;-61
2022/06/07 05:01:32;;;;;;;27.30;9.77;;;;;;;;;;5022542;28;20048;-61
2022/06/07 05:03:58;;;;;;;18.13;9.32;;;;;;;;;;5022839;28;20034;-62
2022/06/07 05:06:27;;;;;;;17.85;9.43;;;;;;;;;;5022421;28;20056;-62
2022/06/07 05:08:56;;;;;;;20.08;9.82;;;;;;;;;;5022273;28;20111;-62
2022/06/07 05:11:22;;;;;;;20.95;10.32;;;;;;;;;;5022142;28;20084;-62
2022/06/07 05:13:48;;;;;;;19.15;10.05;;;;;;;;;;5022170;28;20061;-62
2022/06/07 05:16:14;;;;;;;17.90;10.02;;;;;;;;;;5023408;28;20045;-62
2022/06/07 05:18:40;;;;;;;19.52;10.48;;;;;;;;;;5022641;28;20063;-59
2022/06/07 05:21:08;;;;;;;17.80;9.60;;;;;;;;;;5022836;28;20049;-60
2022/06/07 05:23:34;;;;;;;20.25;10.70;;;;;;;;;;5021954;28;20171;-60
2022/06/07 05:26:06;;;;;;;23.20;10.48;;;;;;;;;;5022319;28;20124;-60
2022/06/07 05:28:32;;;;;;;20.17;10.57;;;;;;;;;;5023112;28;20077;-59
2022/06/07 05:30:58;;;;;;;30.85;10.25;;;;;;;;;;5022413;28;20053;-60
2022/06/07 05:33:24;;;;;;;19.77;11.77;;;;;;;;;;5018663;28;20033;-60
2022/06/07 05:35:51;;;;;;;22.08;11.75;;;;;;;;;;5009812;28;20615;-60
2022/06/07 05:38:17;;;;;;;28.63;12.27;;;;;;;;;;5004563;28;20050;-60
2022/06/07 05:40:43;;;;;;;24.70;11.40;;;;;;;;;;5005499;28;20407;-60
2022/06/07 05:43:12;;;;;;;18.27;10.85;;;;;;;;;;5010459;28;20033;-60
2022/06/07 05:45:38;;;;;;;19.65;10.73;;;;;;;;;;5008224;28;20180;-60
2022/06/07 05:48:05;;;;;;;22.00;10.82;;;;;;;;;;5008829;28;20042;-60
2022/06/07 05:50:31;;;;;;;21.48;11.63;;;;;;;;;;5017424;28;20037;-60
2022/06/07 05:52:58;;;;;;;21.27;10.93;;;;;;;;;;5013488;28;20049;-62
2022/06/07 05:55:24;;;;;;;20.73;10.68;;;;;;;;;;5017741;28;20681;-62
2022/06/07 05:57:54;;;;;;;23.55;11.05;;;;;;;;;;5015969;28;20904;-61
2022/06/07 06:00:21;;;;;;;21.08;10.75;;;;;;;;;;5018900;28;20538;-61
2022/06/07 06:02:47;;;;;;;21.85;11.00;;;;;;;;;;4998907;28;20518;-61
2022/06/07 06:05:14;;;;;;;17.88;9.52;;;;;;;;;;5010089;28;20041;-60
2022/06/07 06:10:19;;;;;;;18.65;9.73;;;;;;;;;;5010564;28;20050;-61
2022/06/07 06:10:26;;;;;;;18.63;8.15;;;;;;;;;;4999601;28;20487;-60
2022/06/07 06:12:52;;;;;;;15.73;8.98;;;;;;;;;;5009627;28;20530;-61
2022/06/07 06:15:19;;;;;;;17.33;8.68;;;;;;;;;;5008566;28;20038;-60
2022/06/07 06:17:45;;;;;;;17.27;9.70;;;;;;;;;;5014054;28;20050;-60
2022/06/07 06:20:12;;;;;;;17.92;8.75;;;;;;;;;;4997274;28;20071;-60
2022/06/07 06:22:38;;;;;;;15.27;8.15;;;;;;;;;;5010183;28;20113;-61
2022/06/07 06:25:05;;;;;;;14.30;7.97;;;;;;;;;;5013238;28;20042;-61
2022/06/07 06:27:32;;;;;;;16.33;9.32;;;;;;;;;;5025258;28;20045;-61
2022/06/07 06:29:58;;;;;;;21.63;8.50;;;;;;;;;;5026430;28;20128;-61
2022/06/07 06:32:24;;;;;;;20.55;8.13;;;;;;;;;;5004564;28;20045;-61
2022/06/07 06:34:50;;;;;;;21.95;8.73;;;;;;;;;;5025977;28;20037;-61
2022/06/07 06:37:17;;;;;;;17.42;8.20;;;;;;;;;;5021173;28;20546;-61
2022/06/07 06:39:44;;;;;;;15.77;7.95;;;;;;;;;;5026685;28;20045;-61
2022/06/07 06:42:10;;;;;;;17.17;7.18;;;;;;;;;;5026354;28;20073;-61
2022/06/07 06:44:36;;;;;;;14.07;6.93;;;;;;;;;;5025919;28;20467;-61
2022/06/07 06:47:03;;;;;;;11.50;5.03;;;;;;;;;;5026314;28;20168;-61
2022/06/07 06:49:30;;;;;;;13.60;5.57;;;;;;;;;;5025912;28;20135;-61
2022/06/07 06:51:57;;;;;;;14.70;5.93;;;;;;;;;;5024595;28;20049;-61
2022/06/07 06:54:23;;;;;;;16.77;5.65;;;;;;;;;;5008192;28;20047;-60
2022/06/07 06:56:50;;;;;;;16.35;5.65;;;;;;;;;;5025578;28;20161;-61
2022/06/07 06:59:16;;;;;;;15.57;6.38;;;;;;;;;;5025856;28;20057;-60
2022/06/07 07:01:42;;;;;;;18.83;6.55;;;;;;;;;;5025665;28;20132;-61
2022/06/07 07:04:16;;;;;;;16.48;6.38;;;;;;;;;;5025652;28;20120;-61
2022/06/07 07:06:43;;;;;;;14.88;8.10;;;;;;;;;;5018073;28;20073;-61
2022/06/07 07:09:09;;;;;;;15.30;7.90;;;;;;;;;;5021896;28;20053;-61
2022/06/07 07:11:38;;;;;;;16.58;7.90;;;;;;;;;;5022614;28;20084;-62
2022/06/07 07:14:06;;;;;;;15.13;8.43;;;;;;;;;;5022537;28;20049;-62
2022/06/07 07:16:33;;;;;;;18.23;8.65;;;;;;;;;;5011566;28;20049;-62
2022/06/07 07:18:59;;;;;;;18.35;9.02;;;;;;;;;;5022262;28;20052;-62
2022/06/07 07:21:28;;;;;;;19.45;9.50;;;;;;;;;;5021923;28;20029;-61
2022/06/07 07:23:55;;;;;;;21.90;7.65;;;;;;;;;;5021483;28;20482;-61
2022/06/07 07:26:23;;;;;;;18.13;6.38;;;;;;;;;;5019759;28;20043;-61
2022/06/07 07:28:49;;;;;;;9.82;5.57;;;;;;;;;;5022125;28;20117;-62
2022/06/07 07:31:18;;;;;;;12.02;5.50;;;;;;;;;;5022011;28;21052;-61
2022/06/07 07:33:45;;;;;;;9.68;4.30;;;;;;;;;;5021260;28;20128;-61
2022/06/07 07:36:11;;;;;;;9.38;3.60;;;;;;;;;;5021858;28;20041;-61
2022/06/07 07:38:38;;;;;;;8.52;3.63;;;;;;;;;;5021440;28;20079;-61
2022/06/07 07:41:04;;;;;;;9.68;3.92;;;;;;;;;;5001951;28;20053;-61
2022/06/07 07:43:31;;;;;;;7.15;3.60;;;;;;;;;;5019256;28;20048;-63
2022/06/07 07:45:57;;;;;;;12.85;3.90;;;;;;;;;;5022232;28;20097;-62
2022/06/07 07:48:24;;;;;;;12.52;4.00;;;;;;;;;;5022019;28;20052;-61
2022/06/07 07:50:51;;;;;;;11.50;3.83;;;;;;;;;;5022031;28;20046;-61
2022/06/07 07:53:19;;;;;;;10.65;3.72;;;;;;;;;;5020745;28;20041;-61
2022/06/07 07:55:47;;;;;;;13.35;3.25;;;;;;;;;;5007953;28;20052;-61
2022/06/07 07:58:13;;;;;;;9.55;3.70;;;;;;;;;;5022570;28;20041;-61
2022/06/07 08:00:44;;;;;;;10.07;3.63;;;;;;;;;;5021747;28;20056;-61
2022/06/07 08:03:10;;;;;;;12.68;3.45;;;;;;;;;;5022241;28;20119;-61
2022/06/07 08:05:36;;;;;;;12.00;3.38;;;;;;;;;;5020925;28;20095;-61
2022/06/07 08:08:03;;;;;;;15.15;4.45;;;;;;;;;;5020909;28;20056;-61
2022/06/07 08:10:29;;;;;;;7.95;3.60;;;;;;;;;;5021574;28;20155;-61
2022/06/07 08:12:56;;;;;;;8.02;3.58;;;;;;;;;;5021863;28;20103;-61
2022/06/07 08:15:23;;;;;;;9.65;3.75;;;;;;;;;;5021278;28;20041;-61
2022/06/07 08:17:49;;;;;;;10.95;3.80;;;;;;;;;;5021377;28;20495;-61
2022/06/07 08:20:16;;;;;;;12.75;3.90;;;;;;;;;;5021366;28;20041;-61
2022/06/07 08:22:42;;;;;;;8.07;4.35;;;;;;;;;;5021345;28;20048;-61
2022/06/07 08:25:10;;;;;;;12.55;4.75;;;;;;;;;;5021807;28;20064;-61
2022/06/07 08:27:37;;;;;;;15.47;5.67;;;;;;;;;;5020863;28;20135;-61
2022/06/07 08:30:04;;;;;;;8.75;4.10;;;;;;;;;;5021142;28;20679;-61
2022/06/07 08:32:30;;;;;;;14.55;4.50;;;;;;;;;;5021101;28;20447;-61
2022/06/07 08:37:42;;;;;;;14.07;4.85;;;;;;;;;;5020571;28;20659;-61
2022/06/07 08:40:11;;;;;;;13.60;5.13;;;;;;;;;;5021365;28;20510;-60
2022/06/07 08:42:42;;;;;;;16.70;5.63;;;;;;;;;;5020218;28;20523;-61
2022/06/07 08:45:13;;;;;;;12.77;5.85;;;;;;;;;;5021464;28;20041;-61
2022/06/07 08:47:42;;;;;;;13.18;4.97;;;;;;;;;;5021218;28;20081;-61
2022/06/07 08:50:23;;;;;;;15.98;6.53;;;;;;;;;;5021240;28;20041;-61
2022/06/07 08:52:51;;;;;;;13.20;5.60;;;;;;;;;;5018363;28;20055;-61
2022/06/07 08:55:20;;;;;;;16.33;6.70;;;;;;;;;;5021340;28;20060;-61
2022/06/07 08:57:51;;;;;;;10.63;5.75;;;;;;;;;;5021996;28;20127;-61
2022/06/07 09:00:22;;;;;;;12.88;6.05;;;;;;;;;;5019203;28;20483;-61
2022/06/07 09:03:00;;;;;;;14.05;5.82;;;;;;;;;;5021106;28;20045;-61
2022/06/07 09:05:27;;;;;;;13.88;5.10;;;;;;;;;;5020161;28;20041;-61
2022/06/07 09:07:53;;;;;;;16.65;5.75;;;;;;;;;;5020616;28;20051;-61
2022/06/07 09:13:07;;;;;;;10.48;5.13;;;;;;;;;;5021208;28;20053;-61
2022/06/07 09:15:34;;;;;;;16.25;5.30;;;;;;;;;;5020772;28;20053;-61
2022/06/07 09:18:01;;;;;;;14.00;5.57;;;;;;;;;;5020627;28;20063;-62
2022/06/07 09:20:31;;;;;;;14.95;5.43;;;;;;;;;;5020521;28;20466;-62
2022/06/07 09:23:00;;;;;;;14.70;4.88;;;;;;;;;;5019926;28;20107;-62
2022/06/07 09:25:34;;;;;;;15.55;5.15;;;;;;;;;;5020504;28;20056;-62
2022/06/07 09:28:01;;;;;;;12.95;5.05;;;;;;;;;;5020995;28;20107;-62
2022/06/07 09:30:29;;;;;;;14.27;5.63;;;;;;;;;;5020297;28;20048;-62
2022/06/07 09:32:56;;;;;;;11.32;4.47;;;;;;;;;;5024464;28;20168;-62
2022/06/07 09:35:36;;;;;;;7.55;4.50;;;;;;;;;;5023603;28;20089;-62
2022/06/07 09:38:08;;;;;;;10.57;4.40;;;;;;;;;;5023125;28;20041;-62
2022/06/07 09:40:37;;;;;;;12.05;4.50;;;;;;;;;;5023170;28;20102;-62
2022/06/07 09:43:03;;;;;;;7.15;3.35;;;;;;;;;;5022194;28;20046;-62
2022/06/07 09:45:34;;;;;;;8.18;3.35;;;;;;;;;;5006090;28;20107;-62
2022/06/07 09:48:18;;;;;;;6.70;2.47;;;;;;;;;;5021900;28;20143;-62
2022/06/07 09:50:53;;;;;;;7.68;3.10;;;;;;;;;;5022311;28;20038;-61
2022/06/07 09:53:20;;;;;;;6.40;2.53;;;;;;;;;;5023288;28;20106;-61
2022/06/07 09:55:46;;;;;;;8.27;2.58;;;;;;;;;;5024970;28;20049;-61
2022/06/07 09:58:31;;;;;;;5.97;2.55;;;;;;;;;;5024574;28;20125;-62
2022/06/07 10:01:02;;;;;;;9.32;3.03;;;;;;;;;;5024397;28;20045;-61
2022/06/07 10:03:33;;;;;;;6.53;2.78;;;;;;;;;;5023808;28;20457;-60
2022/06/07 10:06:06;;;;;;;7.72;2.33;;;;;;;;;;5020982;28;20127;-61
2022/06/07 10:08:34;;;;;;;4.22;2.33;;;;;;;;;;5024019;28;20053;-61
2022/06/07 10:11:07;;;;;;;6.30;2.70;;;;;;;;;;5024259;28;20051;-61
2022/06/07 10:13:51;;;;;;;10.00;3.00;;;;;;;;;;5023777;28;20049;-61
2022/06/07 10:16:17;;;;;;;7.70;2.97;;;;;;;;;;5024002;28;20169;-61
2022/06/07 10:18:47;;;;;;;9.88;3.42;;;;;;;;;;5023846;28;20497;-61
2022/06/07 10:21:18;;;;;;;8.55;3.10;;;;;;;;;;5023136;28;20365;-62
2022/06/07 10:24:03;;;;;;;8.05;2.67;;;;;;;;;;5023900;28;20049;-60
2022/06/07 10:26:48;;;;;;;7.63;2.78;;;;;;;;;;5023244;28;20124;-61
2022/06/07 10:29:23;;;;;;;10.15;2.70;;;;;;;;;;5023293;28;20076;-61
2022/06/07 10:31:55;;;;;;;5.65;2.53;;;;;;;;;;5023795;28;20061;-61
2022/06/07 10:34:39;;;;;;;6.28;2.03;;;;;;;;;;5023838;28;20129;-61
2022/06/07 10:37:11;;;;;;;4.10;1.90;;;;;;;;;;5022104;28;20475;-61
2022/06/07 10:39:38;;;;;;;6.50;1.90;;;;;;;;;;5022522;28;20041;-60
2022/06/07 10:42:12;;;;;;;5.40;1.55;;;;;;;;;;5022405;28;20079;-61
2022/06/07 10:44:42;;;;;;;3.60;1.60;;;;;;;;;;5022395;28;20076;-61
2022/06/07 10:47:12;;;;;;;6.88;1.92;;;;;;;;;;5023148;28;20095;-61
2022/06/07 10:49:53;;;;;;;3.45;1.35;;;;;;;;;;5022754;28;20038;-60
2022/06/07 10:52:37;;;;;;;2.80;1.40;;;;;;;;;;5021678;28;20587;-61
2022/06/07 10:55:09;;;;;;;4.25;1.52;;;;;;;;;;5021756;28;20410;-60
2022/06/07 10:57:36;;;;;;;3.42;1.40;;;;;;;;;;5023102;28;20048;-61
2022/06/07 11:00:15;;;;;;;4.97;1.40;;;;;;;;;;5022774;28;20037;-61
2022/06/07 11:02:48;;;;;;;3.70;1.13;;;;;;;;;;5022896;28;20049;-61
2022/06/07 11:10:56;;;;;;;3.67;0.80;;;;;;;;;;5021044;28;20071;-62
2022/06/07 11:13:22;;;;;;;2.50;0.70;;;;;;;;;;5022945;28;20053;-61
2022/06/07 11:15:54;;;;;;;2.00;0.90;;;;;;;;;;5023202;28;20038;-61
2022/06/07 11:18:22;;;;;;;2.78;0.80;;;;;;;;;;5022589;28;20068;-61
2022/06/07 11:20:51;;;;;;;2.35;0.60;;;;;;;;;;5022493;28;20041;-62
2022/06/07 11:23:29;;;;;;;2.75;0.70;;;;;;;;;;5022420;28;20080;-61
2022/06/07 11:26:14;;;;;;;3.20;0.70;;;;;;;;;;5021481;28;20056;-61
2022/06/07 11:28:40;;;;;;;1.77;0.65;;;;;;;;;;5022191;28;20308;-61
2022/06/07 11:31:15;;;;;;;7.03;0.80;;;;;;;;;;5022149;28;20038;-61
2022/06/07 11:33:47;;;;;;;3.28;0.90;;;;;;;;;;5021450;28;20091;-61
2022/06/07 11:36:14;;;;;;;7.25;1.30;;;;;;;;;;5022173;28;20038;-61
2022/06/07 11:38:56;;;;;;;12.35;1.23;;;;;;;;;;5022273;28;20056;-61
2022/06/07 11:41:37;;;;;;;5.32;0.95;;;;;;;;;;5020415;28;20037;-62
2022/06/07 11:44:24;;;;;;;5.47;1.17;;;;;;;;;;5022581;28;20053;-61
2022/06/07 11:46:50;;;;;;;2.90;0.95;;;;;;;;;;5020824;28;20128;-61
2022/06/07 11:49:16;;;;;;;6.95;1.10;;;;;;;;;;5019023;28;20056;-61
2022/06/07 11:51:43;;;;;;;4.25;1.25;;;;;;;;;;5021604;28;20042;-61
2022/06/07 11:54:15;;;;;;;3.65;1.00;;;;;;;;;;5020356;28;20049;-61
2022/06/07 11:56:44;;;;;;;6.68;1.20;;;;;;;;;;5022299;28;20118;-61
2022/06/07 11:59:17;;;;;;;4.25;1.52;;;;;;;;;;5022382;28;20041;-61
2022/06/07 12:01:45;;;;;;;5.32;1.35;;;;;;;;;;5022480;28;20532;-61
2022/06/07 12:04:30;;;;;;;3.78;0.93;;;;;;;;;;5018001;28;20403;-61
2022/06/07 12:06:58;;;;;;;4.70;1.13;;;;;;;;;;5018060;28;20049;-61
2022/06/07 12:09:26;;;;;;;3.92;1.25;;;;;;;;;;5021451;28;20050;-61
2022/06/07 12:11:53;;;;;;;2.92;0.95;;;;;;;;;;5021023;28;20156;-61
2022/06/07 12:14:23;;;;;;;5.57;1.27;;;;;;;;;;5020967;28;20045;-62
2022/06/07 12:16:50;;;;;;;4.97;1.00;;;;;;;;;;5016939;28;20086;-61
2022/06/07 12:19:17;;;;;;;3.55;1.52;;;;;;;;;;5014869;28;20321;-61
2022/06/07 12:21:48;;;;;;;3.17;1.05;;;;;;;;;;5020620;28;20570;-61
2022/06/07 12:24:15;;;;;;;3.80;1.17;;;;;;;;;;5020856;28;20052;-61
2022/06/07 12:26:45;;;;;;;2.57;1.20;;;;;;;;;;5017251;28;20103;-61
2022/06/07 12:29:12;;;;;;;4.50;1.77;;;;;;;;;;5020910;28;20049;-61
2022/06/07 12:31:43;;;;;;;6.68;2.28;;;;;;;;;;5011332;28;20045;-61
2022/06/07 12:34:19;;;;;;;8.43;2.00;;;;;;;;;;5010282;28;20103;-61
2022/06/07 12:36:46;;;;;;;3.90;1.80;;;;;;;;;;5008057;28;20507;-61
2022/06/07 12:39:14;;;;;;;6.97;2.33;;;;;;;;;;5021475;28;20044;-61
2022/06/07 12:41:47;;;;;;;4.55;2.10;;;;;;;;;;5020927;28;20092;-61
2022/06/07 12:44:20;;;;;;;13.02;2.22;;;;;;;;;;5021282;28;20414;-63
2022/06/07 12:46:46;;;;;;;10.57;2.58;;;;;;;;;;5021475;28;20092;-62
2022/06/07 12:49:19;;;;;;;9.00;2.85;;;;;;;;;;5021224;28;20045;-63
2022/06/07 12:51:53;;;;;;;9.10;2.72;;;;;;;;;;5020855;28;20056;-60
2022/06/07 12:54:22;;;;;;;8.88;2.63;;;;;;;;;;5020908;28;20694;-61
2022/06/07 12:56:49;;;;;;;8.00;2.17;;;;;;;;;;5020398;28;20053;-61
2022/06/07 12:59:33;;;;;;;6.82;2.45;;;;;;;;;;5004097;28;20071;-60
2022/06/07 13:02:00;;;;;;;9.32;2.95;;;;;;;;;;5019396;28;20057;-60
2022/06/07 13:04:32;;;;;;;6.55;2.80;;;;;;;;;;5021163;28;20038;-60
2022/06/07 13:06:58;;;;;;;5.63;2.40;;;;;;;;;;5022773;28;20061;-60
2022/06/07 13:09:25;;;;;;;11.98;2.85;;;;;;;;;;5024599;28;20057;-60
2022/06/07 13:11:51;;;;;;;12.65;3.08;;;;;;;;;;5024384;28;20090;-60
2022/06/07 13:14:17;;;;;;;8.52;2.78;;;;;;;;;;5024580;28;20484;-61
2022/06/07 13:16:46;;;;;;;7.53;1.95;;;;;;;;;;5025038;28;20053;-61
2022/06/07 13:19:13;;;;;;;6.30;2.10;;;;;;;;;;5025307;28;20049;-60
2022/06/07 13:21:41;;;;;;;6.85;1.63;;;;;;;;;;5023804;28;20045;-60
2022/06/07 13:24:20;;;;;;;7.82;2.55;;;;;;;;;;5024669;28;20428;-60
2022/06/07 13:26:47;;;;;;;5.82;2.55;;;;;;;;;;5024461;28;20085;-60
2022/06/07 13:29:13;;;;;;;7.43;2.22;;;;;;;;;;5025022;28;20042;-60
2022/06/07 13:31:49;;;;;;;6.35;2.58;;;;;;;;;;5023566;28;20092;-60
2022/06/07 13:34:19;;;;;;;7.82;2.50;;;;;;;;;;5024886;28;20052;-60
2022/06/07 13:36:49;;;;;;;5.90;2.70;;;;;;;;;;5024547;28;20084;-60
2022/06/07 13:39:24;;;;;;;9.98;2.90;;;;;;;;;;5024238;28;21707;-60
2022/06/07 13:41:52;;;;;;;8.27;3.13;;;;;;;;;;5024314;28;20069;-60
2022/06/07 13:44:28;;;;;;;7.75;2.60;;;;;;;;;;5023802;28;20076;-61
2022/06/07 13:46:59;;;;;;;7.38;2.80;;;;;;;;;;5024459;28;20068;-61
2022/06/07 13:55:06;;;;;;;9.00;3.50;;;;;;;;;;5024398;28;20072;-60
2022/06/07 13:57:33;;;;;;;11.20;3.60;;;;;;;;;;5024022;28;20057;-60
2022/06/07 13:59:59;;;;;;;6.55;3.00;;;;;;;;;;5006475;28;20091;-60
2022/06/07 14:02:26;;;;;;;12.52;3.67;;;;;;;;;;5020550;28;20049;-60
2022/06/07 14:04:52;;;;;;;9.23;3.10;;;;;;;;;;5023719;28;20564;-60
2022/06/07 14:07:18;;;;;;;14.77;3.97;;;;;;;;;;5022780;28;20509;-60
2022/06/07 14:09:44;;;;;;;10.98;3.90;;;;;;;;;;5006710;28;20037;-61
2022/06/07 14:12:10;;;;;;;11.55;4.32;;;;;;;;;;5021780;28;20041;-60
2022/06/07 14:14:37;;;;;;;12.57;4.60;;;;;;;;;;5023098;28;20323;-60
2022/06/07 14:17:07;;;;;;;7.68;3.78;;;;;;;;;;5022226;28;20653;-60
2022/06/07 14:19:39;;;;;;;7.63;3.33;;;;;;;;;;5022156;28;20438;-60
2022/06/07 14:22:15;;;;;;;14.45;3.70;;;;;;;;;;5004590;28;20042;-60
2022/06/07 14:24:42;;;;;;;11.48;3.65;;;;;;;;;;5021737;28;20052;-60
2022/06/07 14:27:12;;;;;;;8.20;2.97;;;;;;;;;;5024045;28;20041;-62
2022/06/07 14:29:39;;;;;;;11.82;3.67;;;;;;;;;;5023369;28;20037;-61
2022/06/07 14:32:05;;;;;;;10.20;3.80;;;;;;;;;;5023594;28;20037;-61
2022/06/07 14:34:31;;;;;;;9.85;3.38;;;;;;;;;;5023171;28;20049;-62
2022/06/07 14:36:59;;;;;;;9.57;3.30;;;;;;;;;;5022624;28;20045;-61
2022/06/07 14:39:25;;;;;;;16.58;4.97;;;;;;;;;;5023026;28;20053;-61
2022/06/07 14:41:52;;;;;;;9.60;4.00;;;;;;;;;;5008854;28;20061;-61
2022/06/07 14:44:18;;;;;;;13.45;3.67;;;;;;;;;;5022976;28;20107;-62
2022/06/07 14:46:45;;;;;;;7.30;2.97;;;;;;;;;;5023907;28;20103;-61
2022/06/07 14:49:22;;;;;;;8.38;3.47;;;;;;;;;;5023435;28;20044;-61
2022/06/07 14:51:52;;;;;;;8.80;3.20;;;;;;;;;;5022250;28;20049;-63
2022/06/07 14:54:22;;;;;;;9.60;3.72;;;;;;;;;;5004497;28;20847;-62
2022/06/07 14:56:50;;;;;;;19.73;3.50;;;;;;;;;;5022500;28;20081;-61
2022/06/07 14:59:17;;;;;;;11.52;3.42;;;;;;;;;;5023210;28;20880;-61
2022/06/07 15:01:51;;;;;;;8.13;3.10;;;;;;;;;;5022742;28;20136;-61
2022/06/07 15:04:20;;;;;;;10.75;3.05;;;;;;;;;;5019314;28;20053;-61